Time;durP1;ratioP1;P1;durP2;ratioP2;P2;SDS_P1;SDS_P2;PMS_P1;PMS_P2;Temp;Humidity;BMP_temperature;BMP_pressure;BME280_temperature;BME280_humidity;BME280_pressure;Samples;Min_cycle;Max_cycle;Signal;HPM_P1;HPM_P2
2020/12/13 00:01:48;;;;;;;28.10;15.88;;;;;;;6.22;69.48;92692.50;5011812;28;20390;-67
2020/12/13 00:04:14;;;;;;;31.63;16.98;;;;;;;6.20;69.50;92693.94;5011594;28;20014;-67
2020/12/13 00:06:39;;;;;;;27.85;14.85;;;;;;;6.17;69.78;92700.63;5011682;28;20033;-67
2020/12/13 00:09:05;;;;;;;27.90;15.43;;;;;;;6.12;69.53;92697.38;5010225;28;20033;-66
2020/12/13 00:11:31;;;;;;;28.65;14.80;;;;;;;6.12;70.20;92708.72;5010471;28;20457;-67
2020/12/13 00:13:56;;;;;;;29.48;15.98;;;;;;;6.12;69.94;92707.94;5011587;28;20481;-67
2020/12/13 00:16:22;;;;;;;33.05;16.27;;;;;;;6.12;69.93;92708.72;5011626;28;20037;-67
2020/12/13 00:18:47;;;;;;;31.98;15.35;;;;;;;6.14;69.85;92709.19;5011322;28;20030;-67
2020/12/13 00:21:14;;;;;;;28.45;15.55;;;;;;;6.13;69.97;92712.94;5011404;28;20498;-67
2020/12/13 00:23:40;;;;;;;28.65;15.15;;;;;;;6.12;69.64;92707.94;5010128;28;20026;-67
2020/12/13 00:26:07;;;;;;;33.25;16.70;;;;;;;6.11;69.75;92709.81;5009864;28;20036;-67
2020/12/13 00:28:33;;;;;;;30.60;15.88;;;;;;;6.13;69.78;92710.28;5010184;28;20030;-67
2020/12/13 00:30:59;;;;;;;33.13;16.27;;;;;;;6.15;69.79;92717.91;5010034;28;20117;-67
2020/12/13 00:33:24;;;;;;;29.85;16.33;;;;;;;6.09;69.95;92709.34;5011223;28;20061;-67
2020/12/13 00:35:50;;;;;;;32.10;15.35;;;;;;;6.05;70.12;92708.41;5011308;28;20022;-67
2020/12/13 00:38:15;;;;;;;30.65;16.23;;;;;;;5.97;70.28;92712.63;5010299;28;20060;-67
2020/12/13 00:40:41;;;;;;;34.00;16.83;;;;;;;5.92;70.42;92717.25;5011233;28;20398;-66
2020/12/13 00:43:06;;;;;;;31.05;17.20;;;;;;;5.88;70.44;92719.72;5010605;28;20492;-67
2020/12/13 00:45:32;;;;;;;31.73;17.25;;;;;;;5.89;70.91;92721.31;5009896;28;20037;-67
2020/12/13 00:47:57;;;;;;;42.35;17.23;;;;;;;5.87;70.94;92717.44;5009682;28;20474;-67
2020/12/13 00:50:23;;;;;;;35.13;17.02;;;;;;;5.84;70.35;92713.50;5009674;28;20034;-67
2020/12/13 00:52:48;;;;;;;34.35;18.55;;;;;;;5.71;70.77;92717.88;5010987;28;20097;-67
2020/12/13 00:55:14;;;;;;;32.42;18.50;;;;;;;5.61;71.12;92718.16;5009480;28;20025;-67
2020/12/13 00:57:39;;;;;;;36.30;18.83;;;;;;;5.50;71.45;92709.00;5009856;28;20030;-67
2020/12/13 01:00:05;;;;;;;41.25;20.92;;;;;;;5.41;72.11;92706.31;5009683;28;20394;-67
2020/12/13 01:02:30;;;;;;;40.28;19.60;;;;;;;5.33;72.58;92710.53;5009253;28;20164;-67
2020/12/13 01:04:56;;;;;;;37.58;19.67;;;;;;;5.29;72.67;92720.16;5010882;28;20025;-67
2020/12/13 01:07:21;;;;;;;40.53;22.92;;;;;;;5.27;72.62;92716.25;5010829;28;20109;-67
2020/12/13 01:09:47;;;;;;;44.83;21.00;;;;;;;5.30;72.97;92719.06;5010974;28;20455;-67
2020/12/13 01:12:12;;;;;;;49.38;21.75;;;;;;;5.34;72.85;92717.34;5010874;28;20064;-67
2020/12/13 01:14:37;;;;;;;50.35;24.30;;;;;;;5.33;72.81;92729.03;5009425;28;20036;-67
2020/12/13 01:17:03;;;;;;;54.85;27.35;;;;;;;5.31;73.36;92725.09;5009616;28;20026;-67
2020/12/13 01:19:28;;;;;;;50.15;24.80;;;;;;;5.33;73.46;92723.75;5009291;28;20468;-67
2020/12/13 01:21:56;;;;;;;48.25;25.10;;;;;;;5.37;73.44;92727.31;5010783;28;20049;-66
2020/12/13 01:24:22;;;;;;;51.65;23.83;;;;;;;5.42;73.39;92724.53;5010661;28;20030;-66
2020/12/13 01:26:47;;;;;;;46.15;23.67;;;;;;;5.49;72.76;92728.56;5000185;28;20097;-67
2020/12/13 01:29:13;;;;;;;49.15;24.80;;;;;;;5.53;73.07;92719.72;5009406;28;20142;-67
2020/12/13 01:31:41;;;;;;;47.88;24.15;;;;;;;5.60;73.11;92724.56;5010528;28;20030;-67
2020/12/13 01:34:07;;;;;;;50.83;23.20;;;;;;;5.66;72.89;92723.31;5010565;28;20026;-67
2020/12/13 01:36:33;;;;;;;51.08;23.63;;;;;;;5.70;73.06;92713.69;5010513;28;20092;-67
2020/12/13 01:38:58;;;;;;;50.17;24.10;;;;;;;5.75;73.07;92716.16;5010728;28;20469;-67
2020/12/13 01:41:24;;;;;;;58.70;24.75;;;;;;;5.81;72.62;92711.50;5010468;28;20085;-67
2020/12/13 01:44:01;;;;;;;47.60;24.48;;;;;;;5.83;72.41;92712.75;5009065;28;20030;-67
2020/12/13 01:46:27;;;;;;;52.60;23.90;;;;;;;5.85;72.46;92715.09;5010310;28;20037;-67
2020/12/13 01:48:57;;;;;;;49.47;23.45;;;;;;;5.87;72.27;92717.44;5010335;28;20034;-67
2020/12/13 01:51:36;;;;;;;46.15;23.95;;;;;;;5.88;72.39;92705.75;5014281;28;20029;-67
2020/12/13 01:54:03;;;;;;;41.38;21.67;;;;;;;5.91;72.34;92707.78;5008416;28;20026;-67
2020/12/13 01:56:31;;;;;;;45.95;22.75;;;;;;;5.95;72.40;92720.09;5013017;28;20026;-67
2020/12/13 01:58:57;;;;;;;46.13;25.08;;;;;;;5.98;72.09;92719.47;5012583;28;20028;-67
2020/12/13 02:01:24;;;;;;;59.35;29.25;;;;;;;5.96;72.23;92711.09;5014182;28;20018;-67
2020/12/13 02:03:58;;;;;;;65.07;31.65;;;;;;;6.00;71.99;92711.22;5013827;28;20036;-67
2020/12/13 02:06:29;;;;;;;53.13;26.73;;;;;;;6.01;71.90;92712.78;5014063;28;20025;-67
2020/12/13 02:08:55;;;;;;;54.50;26.77;;;;;;;6.02;71.56;92704.53;5013847;28;20382;-66
2020/12/13 02:11:21;;;;;;;43.08;22.90;;;;;;;6.03;71.36;92705.31;5013800;28;20033;-67
2020/12/13 02:13:48;;;;;;;45.25;22.88;;;;;;;6.02;71.42;92711.69;5013623;28;20115;-67
2020/12/13 02:16:15;;;;;;;44.75;22.92;;;;;;;6.03;71.42;92710.59;5012619;28;20097;-67
2020/12/13 02:18:42;;;;;;;45.47;21.08;;;;;;;6.07;71.31;92716.06;5013708;28;20113;-67
2020/12/13 02:21:12;;;;;;;40.78;21.13;;;;;;;6.07;71.81;92711.53;5013661;28;20048;-67
2020/12/13 02:23:39;;;;;;;38.50;19.13;;;;;;;6.07;71.32;92711.53;5012183;28;20028;-67
2020/12/13 02:26:15;;;;;;;40.05;18.58;;;;;;;6.08;71.63;92710.44;5012092;28;20125;-67
2020/12/13 02:28:41;;;;;;;39.08;20.35;;;;;;;6.10;71.56;92716.19;5013490;28;20402;-67
2020/12/13 02:31:07;;;;;;;38.83;20.52;;;;;;;6.10;71.49;92726.75;5013457;28;20105;-67
2020/12/13 02:33:35;;;;;;;38.83;19.20;;;;;;;6.09;71.36;92719.94;5013729;28;20564;-67
2020/12/13 02:36:01;;;;;;;36.75;17.92;;;;;;;6.10;71.15;92721.47;5013462;28;20029;-67
2020/12/13 02:38:28;;;;;;;36.90;19.80;;;;;;;6.11;71.08;92725.69;5013238;28;20026;-67
2020/12/13 02:40:54;;;;;;;32.42;17.80;;;;;;;6.11;71.05;92727.56;5011972;28;20523;-67
2020/12/13 02:43:19;;;;;;;37.75;18.48;;;;;;;6.09;71.24;92725.22;5012073;28;20046;-67
2020/12/13 02:45:45;;;;;;;33.15;18.73;;;;;;;6.09;71.07;92727.09;5013289;28;20406;-67
2020/12/13 02:48:10;;;;;;;33.80;18.67;;;;;;;6.06;70.24;92714.50;5011738;28;20401;-67
2020/12/13 02:50:36;;;;;;;34.28;19.13;;;;;;;5.96;70.65;92728.78;5011922;28;20087;-67
2020/12/13 02:53:01;;;;;;;37.90;19.10;;;;;;;5.80;70.76;92729.25;5012885;28;20436;-67
2020/12/13 02:55:27;;;;;;;38.72;20.40;;;;;;;5.72;71.16;92732.66;5013200;28;20057;-67
2020/12/13 02:57:52;;;;;;;46.78;21.85;;;;;;;5.63;71.52;92732.63;5011551;28;20034;-67
2020/12/13 03:00:18;;;;;;;37.90;20.17;;;;;;;5.59;71.45;92728.28;5012324;28;20100;-67
2020/12/13 03:02:43;;;;;;;45.47;21.35;;;;;;;5.50;71.53;92735.44;5011687;28;20117;-66
2020/12/13 03:05:09;;;;;;;43.35;22.08;;;;;;;5.40;71.76;92729.34;5013070;28;20102;-67
2020/12/13 03:07:34;;;;;;;35.47;18.35;;;;;;;5.37;71.71;92737.09;5012614;28;20386;-66
2020/12/13 03:10:00;;;;;;;43.42;21.13;;;;;;;5.35;71.87;92740.06;5012595;28;20072;-66
2020/12/13 03:12:26;;;;;;;40.97;21.15;;;;;;;5.27;72.04;92743.47;5012550;28;20092;-67
2020/12/13 03:14:54;;;;;;;43.50;21.85;;;;;;;5.09;72.57;92744.47;5012686;28;20026;-67
2020/12/13 03:17:21;;;;;;;43.35;22.63;;;;;;;4.89;73.41;92736.00;5011043;28;20037;-67
2020/12/13 03:19:46;;;;;;;49.33;23.65;;;;;;;4.69;74.33;92739.97;5012824;28;20465;-66
2020/12/13 03:22:12;;;;;;;48.03;24.00;;;;;;;4.59;74.97;92746.25;5011172;28;20099;-67
2020/12/13 03:24:37;;;;;;;53.45;23.70;;;;;;;4.54;75.12;92753.53;5012417;28;20037;-67
2020/12/13 03:27:03;;;;;;;45.85;24.00;;;;;;;4.49;75.34;92745.75;5012526;28;20048;-67
2020/12/13 03:29:28;;;;;;;46.88;23.02;;;;;;;4.49;75.15;92740.47;5012410;28;20033;-66
2020/12/13 03:31:54;;;;;;;50.13;22.92;;;;;;;4.53;74.86;92744.84;5012381;28;20030;-66
2020/12/13 03:34:19;;;;;;;42.70;23.15;;;;;;;4.55;75.06;92750.59;5011064;28;20092;-66
2020/12/13 03:36:45;;;;;;;45.38;22.88;;;;;;;4.58;75.33;92751.84;5012155;28;20405;-67
2020/12/13 03:39:10;;;;;;;46.13;23.33;;;;;;;4.58;74.93;92755.28;5010766;28;20595;-67
2020/12/13 03:41:36;;;;;;;49.97;21.73;;;;;;;4.63;74.79;92746.44;5010629;28;20444;-67
2020/12/13 03:44:01;;;;;;;45.67;22.90;;;;;;;4.66;74.71;92745.06;5011954;28;20026;-66
2020/12/13 03:46:27;;;;;;;47.35;23.27;;;;;;;4.61;74.78;92752.03;5010550;28;20164;-67
2020/12/13 03:48:53;;;;;;;50.78;25.35;;;;;;;4.56;75.21;92757.44;5010571;28;20091;-67
2020/12/13 03:51:19;;;;;;;53.15;26.30;;;;;;;4.49;75.54;92751.03;5011883;28;20026;-66
2020/12/13 03:53:44;;;;;;;66.88;33.22;;;;;;;4.50;75.65;92749.94;5010501;28;20497;-67
2020/12/13 03:56:09;;;;;;;68.65;31.00;;;;;;;4.47;75.95;92758.47;5012051;28;20026;-66
2020/12/13 03:58:35;;;;;;;71.47;31.00;;;;;;;4.46;76.11;92757.69;5011780;28;20033;-67
2020/12/13 04:01:00;;;;;;;75.53;34.63;;;;;;;4.41;76.24;92763.84;5010580;28;20116;-66
2020/12/13 04:03:26;;;;;;;84.57;37.97;;;;;;;4.30;76.85;92769.69;5011638;28;20038;-67
2020/12/13 04:05:51;;;;;;;85.68;37.72;;;;;;;4.19;76.80;92764.66;5011568;28;20038;-67
2020/12/13 04:08:17;;;;;;;89.93;37.90;;;;;;;4.16;77.32;92765.25;5011551;28;20034;-67
2020/12/13 04:10:42;;;;;;;83.72;37.80;;;;;;;4.16;77.55;92773.16;5010089;28;20065;-67
2020/12/13 04:13:08;;;;;;;84.57;40.30;;;;;;;4.15;77.64;92768.97;5011452;28;20113;-67
2020/12/13 04:15:33;;;;;;;74.93;36.72;;;;;;;4.16;77.67;92769.75;5010320;28;20509;-66
2020/12/13 04:17:58;;;;;;;83.43;37.53;;;;;;;4.14;77.58;92761.34;5010107;28;20485;-66
2020/12/13 04:20:24;;;;;;;81.28;37.08;;;;;;;4.06;77.69;92765.47;5011394;28;20022;-66
2020/12/13 04:22:49;;;;;;;78.95;34.13;;;;;;;4.05;78.10;92769.22;5009859;28;20025;-67
2020/12/13 04:25:15;;;;;;;68.75;35.33;;;;;;;4.10;78.07;92773.56;5011460;28;20021;-66
2020/12/13 04:27:40;;;;;;;87.38;35.88;;;;;;;4.16;77.81;92772.38;5010098;28;20535;-66
2020/12/13 04:30:06;;;;;;;74.90;34.47;;;;;;;4.14;77.77;92779.81;5011313;28;20018;-67
2020/12/13 04:32:31;;;;;;;76.47;35.03;;;;;;;4.17;77.94;92784.47;5011533;28;20104;-66
2020/12/13 04:34:57;;;;;;;81.97;37.28;;;;;;;4.16;77.41;92794.25;5010016;28;20417;-67
2020/12/13 04:37:25;;;;;;;83.93;36.75;;;;;;;4.08;77.93;92787.06;5010050;28;20442;-66
2020/12/13 04:39:52;;;;;;;86.85;36.05;;;;;;;4.08;78.02;92787.06;5009812;28;20061;-67
2020/12/13 04:42:18;;;;;;;84.82;36.47;;;;;;;4.09;78.09;92786.00;5009622;28;20441;-66
2020/12/13 04:44:45;;;;;;;75.93;34.75;;;;;;;4.13;78.05;92786.16;5009719;28;20022;-66
2020/12/13 04:47:16;;;;;;;78.40;34.60;;;;;;;4.18;78.10;92783.41;5011095;28;20033;-67
2020/12/13 04:49:45;;;;;;;78.82;34.08;;;;;;;4.24;77.83;92792.00;5009830;28;20026;-67
2020/12/13 04:52:11;;;;;;;77.57;34.47;;;;;;;4.21;77.52;92794.16;5009728;28;20461;-66
2020/12/13 04:54:37;;;;;;;83.13;36.05;;;;;;;4.21;77.56;92799.44;5010890;28;20021;-66
2020/12/13 04:57:03;;;;;;;79.55;34.80;;;;;;;4.26;77.43;92801.16;5010810;28;20390;-67
2020/12/13 04:59:30;;;;;;;81.32;34.15;;;;;;;4.28;77.32;92792.97;5009637;28;20025;-66
2020/12/13 05:01:58;;;;;;;77.68;34.53;;;;;;;4.27;77.51;92794.78;5009458;28;20026;-67
2020/12/13 05:04:24;;;;;;;79.85;33.05;;;;;;;4.31;77.54;92797.63;5004370;28;20193;-66
2020/12/13 05:06:49;;;;;;;78.45;33.47;;;;;;;4.34;77.18;92802.31;5010913;28;20104;-66
2020/12/13 05:09:15;;;;;;;82.07;33.17;;;;;;;4.39;76.96;92799.53;5009455;28;20030;-67
2020/12/13 05:11:42;;;;;;;77.13;32.15;;;;;;;4.39;76.96;92800.31;5010778;28;20034;-66
2020/12/13 05:14:08;;;;;;;80.28;33.10;;;;;;;4.35;77.05;92798.56;5010573;28;20488;-67
2020/12/13 05:16:34;;;;;;;77.60;32.60;;;;;;;4.35;77.14;92801.22;5010848;28;20026;-67
2020/12/13 05:18:59;;;;;;;82.75;32.75;;;;;;;4.32;77.15;92794.69;5010504;28;20026;-66
2020/12/13 05:21:25;;;;;;;70.03;30.13;;;;;;;4.29;77.25;92795.28;5009224;28;20059;-67
2020/12/13 05:23:51;;;;;;;80.28;33.42;;;;;;;4.26;77.25;92795.88;5010830;28;20030;-66
2020/12/13 05:26:19;;;;;;;81.38;34.03;;;;;;;4.22;77.32;92800.97;5013376;28;20095;-67
2020/12/13 05:28:47;;;;;;;75.22;31.27;;;;;;;4.22;77.33;92800.97;5014725;28;20438;-66
2020/12/13 05:31:22;;;;;;;72.13;29.00;;;;;;;4.20;77.53;92795.22;5014559;28;20072;-67
2020/12/13 05:34:07;;;;;;;82.25;31.52;;;;;;;4.19;77.77;92806.06;5013254;28;20127;-66
2020/12/13 05:36:38;;;;;;;83.03;31.45;;;;;;;4.23;77.36;92796.47;5013244;28;20030;-66
2020/12/13 05:39:04;;;;;;;87.20;29.55;;;;;;;4.16;77.60;92802.16;5014455;28;20084;-67
2020/12/13 05:41:32;;;;;;;78.25;30.85;;;;;;;4.15;77.54;92813.81;5014236;28;20053;-66
2020/12/13 05:52:05;;;;;;;102.15;32.20;;;;;;;4.12;78.13;92809.13;5014090;28;20026;-66
2020/12/13 05:54:31;;;;;;;126.63;34.03;;;;;;;4.11;78.21;92815.47;5012677;28;20030;-67
2020/12/13 05:56:59;;;;;;;99.15;31.77;;;;;;;4.14;78.21;92825.41;5014102;28;20040;-66
2020/12/13 05:59:26;;;;;;;88.35;30.25;;;;;;;4.22;77.93;92818.66;5012776;28;20030;-67
2020/12/13 06:01:56;;;;;;;109.70;30.80;;;;;;;4.19;77.66;92829.78;5012775;28;20040;-67
2020/12/13 06:04:27;;;;;;;101.95;29.23;;;;;;;4.17;77.51;92834.59;5013709;28;20109;-67
2020/12/13 06:06:55;;;;;;;86.53;30.35;;;;;;;4.11;77.94;92836.56;5013562;28;20037;-71
2020/12/13 06:09:33;;;;;;;83.50;28.65;;;;;;;4.11;77.85;92825.22;5013291;28;20088;-71
2020/12/13 06:12:03;;;;;;;112.80;29.42;;;;;;;4.15;77.82;92827.00;5013327;28;20092;-71
2020/12/13 06:14:29;;;;;;;69.68;29.42;;;;;;;4.19;77.76;92838.50;5013340;28;20100;-71
2020/12/13 06:16:57;;;;;;;80.22;29.88;;;;;;;4.26;77.51;92838.09;5013381;28;20053;-71
2020/12/13 06:19:24;;;;;;;70.57;31.40;;;;;;;4.33;77.16;92842.94;5013149;28;20025;-71
2020/12/13 06:21:51;;;;;;;83.10;34.60;;;;;;;4.37;76.93;92849.19;5011985;28;20469;-71
2020/12/13 06:24:17;;;;;;;68.32;30.55;;;;;;;4.44;76.40;92854.84;5013195;28;20038;-71
2020/12/13 06:26:43;;;;;;;69.70;28.55;;;;;;;4.49;75.78;92852.06;5011864;28;20037;-71
2020/12/13 06:29:09;;;;;;;64.47;27.90;;;;;;;4.52;75.68;92859.41;5011788;28;20033;-71
2020/12/13 06:31:36;;;;;;;78.57;29.95;;;;;;;4.57;75.32;92859.28;5013519;28;20489;-71
2020/12/13 06:34:03;;;;;;;71.03;28.42;;;;;;;4.61;75.01;92857.59;5012769;28;20512;-72
2020/12/13 06:36:31;;;;;;;71.45;27.80;;;;;;;4.59;74.93;92857.09;5011636;28;20489;-72
2020/12/13 06:38:57;;;;;;;70.45;27.20;;;;;;;4.58;74.50;92860.03;5011501;28;20034;-71
2020/12/13 06:41:26;;;;;;;117.38;29.27;;;;;;;4.49;74.79;92856.56;5012821;28;20061;-71
2020/12/13 06:43:54;;;;;;;180.25;30.90;;;;;;;4.41;74.97;92860.69;5012749;28;20030;-71
2020/12/13 06:46:20;;;;;;;111.85;27.23;;;;;;;4.36;75.34;92864.25;5011623;28;20124;-72
2020/12/13 06:48:46;;;;;;;74.63;26.88;;;;;;;4.32;75.08;92867.78;5012784;28;20036;-72
2020/12/13 06:51:39;;;;;;;303.40;31.70;;;;;;;4.28;75.18;92866.81;5012695;28;20400;-71
2020/12/13 06:54:07;;;;;;;145.02;29.95;;;;;;;4.18;75.89;92868.59;5009387;28;20426;-71
2020/12/13 06:56:33;;;;;;;176.15;27.50;;;;;;;4.14;76.18;92866.84;5011397;28;20040;-71
2020/12/13 06:59:02;;;;;;;146.77;28.70;;;;;;;4.16;76.17;92877.88;5012336;28;20088;-71
2020/12/13 07:01:37;;;;;;;68.53;27.85;;;;;;;4.21;76.42;92878.56;5011189;28;20029;-71
2020/12/13 07:04:21;;;;;;;66.53;27.25;;;;;;;4.29;76.43;92887.59;5012060;28;20022;-71
2020/12/13 07:06:56;;;;;;;87.05;27.00;;;;;;;4.39;76.02;92883.97;5012559;28;20033;-71
2020/12/13 07:09:22;;;;;;;99.75;27.60;;;;;;;4.43;75.25;92880.41;5012574;28;20030;-71
2020/12/13 07:11:49;;;;;;;84.40;28.77;;;;;;;4.41;75.89;92884.44;5012491;28;20080;-72
2020/12/13 07:14:16;;;;;;;224.52;31.80;;;;;;;4.41;76.11;92881.81;5012389;28;20093;-71
2020/12/13 07:16:46;;;;;;;144.73;26.17;;;;;;;4.39;75.76;92881.31;5012292;28;20113;-71
2020/12/13 07:19:17;;;;;;;108.93;27.95;;;;;;;4.37;75.92;92883.47;5012402;28;20028;-71
2020/12/13 07:21:44;;;;;;;74.57;26.95;;;;;;;4.35;76.03;92891.69;5010734;28;20030;-71
2020/12/13 07:24:11;;;;;;;87.72;30.00;;;;;;;4.37;76.14;92899.31;5011799;28;20449;-71
2020/12/13 07:26:39;;;;;;;60.00;26.45;;;;;;;4.40;76.03;92909.28;5011994;28;20041;-71
2020/12/13 07:29:16;;;;;;;66.60;27.40;;;;;;;4.41;75.48;92901.06;5012144;28;20109;-71
2020/12/13 07:31:46;;;;;;;63.67;27.13;;;;;;;4.37;75.92;92901.94;5012082;28;20022;-71
2020/12/13 07:34:12;;;;;;;60.35;25.75;;;;;;;4.43;76.11;92906.03;5012108;28;20044;-71
2020/12/13 07:36:37;;;;;;;57.47;25.75;;;;;;;4.51;75.71;92907.97;5010111;28;20127;-71
2020/12/13 07:39:06;;;;;;;62.05;25.90;;;;;;;4.60;75.16;92914.09;5011680;28;20053;-71
2020/12/13 07:41:32;;;;;;;59.80;26.52;;;;;;;4.62;75.20;92921.75;5011243;28;20045;-71
2020/12/13 07:44:12;;;;;;;56.90;25.10;;;;;;;4.65;75.32;92923.00;5010470;28;20379;-71
2020/12/13 07:46:39;;;;;;;66.95;26.83;;;;;;;4.74;75.28;92926.47;5011255;28;20101;-71
2020/12/13 07:49:20;;;;;;;64.32;28.20;;;;;;;4.81;74.84;92932.13;5011773;28;20116;-71
2020/12/13 07:51:52;;;;;;;70.70;28.65;;;;;;;4.87;74.68;92930.94;5009463;28;20120;-71
2020/12/13 07:54:28;;;;;;;68.50;30.00;;;;;;;4.90;74.46;92935.59;5011557;28;20037;-71
2020/12/13 07:56:55;;;;;;;61.95;28.50;;;;;;;4.88;74.36;92943.03;5012014;28;20021;-71
2020/12/13 07:59:23;;;;;;;75.72;29.52;;;;;;;4.90;74.40;92948.78;5010585;28;20037;-71
2020/12/13 08:01:50;;;;;;;75.35;29.30;;;;;;;4.91;74.51;92947.72;5011290;28;20026;-71
2020/12/13 08:04:28;;;;;;;68.88;29.35;;;;;;;4.94;74.77;92955.03;5009990;28;20564;-71
2020/12/13 08:06:57;;;;;;;77.57;30.95;;;;;;;5.03;74.71;92944.56;5011270;28;20464;-71
2020/12/13 08:09:23;;;;;;;75.80;31.92;;;;;;;5.12;74.32;92949.91;5011465;28;20076;-71
2020/12/13 08:11:50;;;;;;;76.28;31.08;;;;;;;5.23;74.47;92961.75;5011127;28;20026;-71
2020/12/13 08:14:15;;;;;;;71.32;31.33;;;;;;;5.33;74.08;92958.91;5011459;28;20010;-72
2020/12/13 08:16:41;;;;;;;78.03;33.90;;;;;;;5.41;73.59;92955.53;5011071;28;20048;-71
2020/12/13 08:19:14;;;;;;;78.57;31.67;;;;;;;5.54;72.93;92958.41;5011121;28;20104;-71
2020/12/13 08:21:48;;;;;;;76.35;32.60;;;;;;;5.66;72.72;92942.75;5009962;28;20087;-72
2020/12/13 08:24:15;;;;;;;68.30;32.67;;;;;;;5.77;72.02;92944.03;5010972;28;20071;-71
2020/12/13 08:26:42;;;;;;;71.55;28.98;;;;;;;5.79;71.88;92944.50;5010948;28;20399;-71
2020/12/13 08:29:08;;;;;;;69.90;28.45;;;;;;;5.89;71.19;92937.41;5010946;28;20159;-71
2020/12/13 08:31:35;;;;;;;63.08;26.60;;;;;;;5.95;70.31;92944.13;5009596;28;20156;-71
2020/12/13 08:34:03;;;;;;;56.60;26.70;;;;;;;5.93;69.60;92941.00;5010770;28;20461;-71
2020/12/13 08:36:29;;;;;;;56.92;23.88;;;;;;;5.89;70.13;92940.03;5009667;28;20030;-71
2020/12/13 08:39:08;;;;;;;57.22;25.33;;;;;;;5.89;70.52;92945.34;5010851;28;20026;-71
2020/12/13 08:41:34;;;;;;;56.78;23.48;;;;;;;5.90;70.44;92945.00;5010910;28;20120;-71
2020/12/13 08:44:00;;;;;;;51.08;25.38;;;;;;;5.97;70.24;92957.84;5010708;28;20026;-71
2020/12/13 08:46:51;;;;;;;52.63;22.38;;;;;;;6.04;69.74;92950.22;5010915;28;20034;-71
2020/12/13 08:49:45;;;;;;;54.55;24.25;;;;;;;6.13;69.57;92961.63;5010538;28;20057;-71
2020/12/13 08:52:24;;;;;;;64.13;26.02;;;;;;;6.16;69.74;92971.59;5010610;28;20042;-71
2020/12/13 08:54:51;;;;;;;65.60;30.35;;;;;;;6.25;69.29;92970.81;5009778;28;20148;-71
2020/12/13 08:57:35;;;;;;;54.63;26.33;;;;;;;6.29;69.62;92967.28;5010365;28;20168;-71
2020/12/13 09:00:20;;;;;;;59.92;28.00;;;;;;;6.32;69.09;92971.16;5009068;28;20112;-72
2020/12/13 09:02:56;;;;;;;64.82;27.00;;;;;;;6.36;68.70;92974.75;5008035;28;20168;-72
2020/12/13 09:05:32;;;;;;;77.70;34.08;;;;;;;6.42;69.15;92976.19;5010517;28;20041;-72
2020/12/13 09:07:59;;;;;;;67.28;29.27;;;;;;;6.54;68.72;92972.94;5009354;28;20548;-72
2020/12/13 09:10:26;;;;;;;60.22;27.60;;;;;;;6.65;68.44;92968.13;5010102;28;20093;-71
2020/12/13 09:12:53;;;;;;;50.20;26.50;;;;;;;6.76;67.49;92964.09;5010580;28;20489;-72
2020/12/13 09:15:21;;;;;;;54.83;26.10;;;;;;;6.83;68.01;92967.81;5010199;28;20469;-71
2020/12/13 09:17:54;;;;;;;60.85;26.42;;;;;;;6.96;66.97;92965.31;5010535;28;20465;-71
2020/12/13 09:20:24;;;;;;;60.03;28.40;;;;;;;7.07;66.74;92957.88;5010307;28;20408;-71
2020/12/13 09:23:00;;;;;;;60.88;28.55;;;;;;;7.18;66.74;92959.84;5010338;28;20096;-71
2020/12/13 09:25:25;;;;;;;69.88;30.35;;;;;;;7.24;66.73;92963.13;5010319;28;20030;-71
2020/12/13 09:27:50;;;;;;;68.97;29.83;;;;;;;7.29;66.25;92955.03;5009279;28;20096;-71
2020/12/13 09:30:16;;;;;;;71.53;32.08;;;;;;;7.21;66.12;92967.19;5010248;28;20109;-71
2020/12/13 09:32:41;;;;;;;61.40;29.40;;;;;;;7.17;65.64;92958.31;5010327;28;20396;-72
2020/12/13 09:35:07;;;;;;;68.40;29.75;;;;;;;7.08;66.17;92964.72;5010301;28;20121;-72
2020/12/13 09:37:32;;;;;;;64.63;29.38;;;;;;;6.99;66.30;92962.06;5008540;28;20037;-72
2020/12/13 09:39:58;;;;;;;56.83;26.25;;;;;;;6.94;67.08;92965.66;5010226;28;20037;-71
2020/12/13 09:42:23;;;;;;;59.13;28.13;;;;;;;6.90;66.86;92964.72;5009794;28;20543;-71
2020/12/13 09:44:50;;;;;;;62.30;29.25;;;;;;;6.96;66.91;92960.81;5010241;28;20053;-71
2020/12/13 09:47:15;;;;;;;57.63;27.10;;;;;;;7.00;66.68;92967.06;5010097;28;20026;-72
2020/12/13 09:49:41;;;;;;;64.18;28.30;;;;;;;7.05;67.30;92960.81;5009546;28;20022;-72
2020/12/13 09:52:06;;;;;;;58.17;26.95;;;;;;;7.01;66.49;92967.84;5008557;28;20087;-72
2020/12/13 09:54:32;;;;;;;55.75;24.52;;;;;;;7.01;66.13;92965.19;5009744;28;20087;-72
2020/12/13 09:56:57;;;;;;;46.00;22.48;;;;;;;6.93;66.38;92961.44;5009869;28;20143;-71
2020/12/13 09:59:24;;;;;;;47.17;21.85;;;;;;;6.98;67.18;92963.16;5009657;28;20026;-71
2020/12/13 10:01:50;;;;;;;46.53;22.17;;;;;;;6.99;67.61;92952.25;5009825;28;20026;-71
2020/12/13 10:04:17;;;;;;;47.70;20.85;;;;;;;7.03;66.10;92949.75;5009826;28;20039;-72
2020/12/13 10:09:17;;;;;;;45.63;21.80;;;;;;;6.90;66.04;92948.03;5010421;28;20029;-71
2020/12/13 10:11:44;;;;;;;39.38;17.92;;;;;;;6.87;66.12;92941.50;5012017;28;20132;-71
2020/12/13 10:14:11;;;;;;;39.50;19.48;;;;;;;6.89;66.15;92941.19;5012211;28;20459;-71
2020/12/13 10:16:38;;;;;;;45.60;20.58;;;;;;;6.81;66.65;92935.56;5013546;28;20466;-71
2020/12/13 10:19:04;;;;;;;41.80;19.33;;;;;;;6.79;66.76;92939.63;5012117;28;20036;-71
2020/12/13 10:21:31;;;;;;;48.72;21.38;;;;;;;6.80;66.51;92943.84;5013130;28;20484;-71
2020/12/13 10:23:58;;;;;;;37.33;18.95;;;;;;;6.89;66.11;92941.97;5011790;28;20034;-71
2020/12/13 10:26:29;;;;;;;39.95;18.88;;;;;;;6.87;66.44;92946.78;5011897;28;20088;-71
2020/12/13 10:28:56;;;;;;;39.47;19.50;;;;;;;6.94;66.59;92943.66;5013121;28;20030;-72
2020/12/13 10:31:36;;;;;;;45.53;18.23;;;;;;;7.01;66.03;92942.09;5013211;28;20041;-71
2020/12/13 10:34:06;;;;;;;44.15;18.33;;;;;;;7.07;66.47;92939.31;5013381;28;20049;-71
2020/12/13 10:36:37;;;;;;;39.80;19.35;;;;;;;7.12;67.31;92939.91;5013180;28;20037;-71
2020/12/13 10:39:04;;;;;;;35.95;17.02;;;;;;;7.33;65.92;92945.38;5012969;28;20040;-71
2020/12/13 10:41:31;;;;;;;41.05;19.85;;;;;;;7.53;66.28;92929.88;5012898;28;20046;-71
2020/12/13 10:43:57;;;;;;;35.50;16.40;;;;;;;7.74;62.75;92936.06;5013026;28;20022;-71
2020/12/13 10:46:23;;;;;;;47.90;22.17;;;;;;;7.68;63.32;92925.94;5012755;28;20055;-71
2020/12/13 10:48:48;;;;;;;45.95;23.58;;;;;;;7.54;64.56;92929.56;5012720;28;20519;-71
2020/12/13 10:51:15;;;;;;;50.72;26.35;;;;;;;7.48;64.87;92930.06;5011108;28;20072;-71
2020/12/13 10:53:42;;;;;;;54.75;26.80;;;;;;;7.27;65.89;92927.28;5011280;28;20484;-71
2020/12/13 10:56:08;;;;;;;54.28;26.15;;;;;;;7.28;64.73;92934.91;5012535;28;20113;-71
2020/12/13 10:58:33;;;;;;;59.15;26.17;;;;;;;7.14;66.12;92937.72;5012367;28;20104;-71
2020/12/13 11:01:01;;;;;;;57.78;27.25;;;;;;;7.07;65.81;92944.63;5012437;28;20497;-71
2020/12/13 11:03:27;;;;;;;50.72;25.30;;;;;;;7.06;66.18;92935.88;5012064;28;20342;-71
2020/12/13 11:05:53;;;;;;;54.20;26.50;;;;;;;7.03;65.91;92941.81;5012480;28;20034;-71
2020/12/13 11:08:18;;;;;;;56.40;27.70;;;;;;;6.93;65.83;92942.88;5011023;28;20485;-71
2020/12/13 11:10:47;;;;;;;50.53;25.55;;;;;;;6.93;66.30;92947.41;5012346;28;20064;-71
2020/12/13 11:13:13;;;;;;;55.03;25.80;;;;;;;7.00;65.92;92939.75;5012174;28;20087;-71
2020/12/13 11:15:39;;;;;;;44.85;24.40;;;;;;;7.08;67.20;92940.84;5012358;28;20092;-71
2020/12/13 11:18:05;;;;;;;43.33;21.92;;;;;;;7.20;65.27;92930.41;5012332;28;20033;-71
2020/12/13 11:20:31;;;;;;;42.90;24.38;;;;;;;7.26;65.00;92934.44;5011567;28;20091;-71
2020/12/13 11:22:56;;;;;;;48.50;24.90;;;;;;;7.32;64.65;92933.19;5011713;28;20131;-72
2020/12/13 11:25:21;;;;;;;48.35;23.65;;;;;;;7.29;64.87;92936.47;5011867;28;20034;-71
2020/12/13 11:27:47;;;;;;;44.22;22.73;;;;;;;7.20;65.75;92930.41;5010790;28;20030;-71
2020/12/13 11:30:12;;;;;;;34.78;19.13;;;;;;;7.21;64.79;92935.41;5011776;28;20386;-71
2020/12/13 11:32:38;;;;;;;39.05;20.10;;;;;;;7.10;65.37;92925.44;5011636;28;20465;-71
2020/12/13 11:35:04;;;;;;;47.00;21.73;;;;;;;7.17;66.41;92929.16;5011894;28;20026;-71
2020/12/13 11:37:30;;;;;;;36.97;19.60;;;;;;;7.26;64.90;92929.16;5011674;28;20061;-71